createdAt,value
2022-10-06T00:00:33.993Z,99033.88
2022-10-06T00:03:00.914Z,99034.00
2022-10-06T00:05:28.020Z,99032.17
2022-10-06T00:07:54.665Z,99031.52
2022-10-06T00:10:22.028Z,99030.63
2022-10-06T00:12:51.366Z,99032.69
2022-10-06T00:15:22.957Z,99030.74
2022-10-06T00:17:50.142Z,99029.46
2022-10-06T00:20:17.883Z,99033.05
2022-10-06T00:22:46.908Z,99024.48
2022-10-06T00:25:19.802Z,99026.66
2022-10-06T00:27:48.445Z,99028.59
2022-10-06T00:30:18.576Z,99025.83
2022-10-06T00:32:57.014Z,99028.22
2022-10-06T00:35:29.721Z,99027.45
2022-10-06T00:37:56.260Z,99031.10
2022-10-06T00:40:23.482Z,99030.33
2022-10-06T00:42:58.495Z,99026.78
2022-10-06T00:45:41.794Z,99034.70
2022-10-06T00:48:24.345Z,99033.52
2022-10-06T00:50:53.872Z,99032.95
2022-10-06T00:53:22.138Z,99029.46
2022-10-06T00:55:48.743Z,99033.23
2022-10-06T00:58:16.304Z,99034.47
2022-10-06T01:00:44.383Z,99032.30
2022-10-06T01:03:33.583Z,99037.42
2022-10-06T01:06:01.939Z,99037.05
2022-10-06T01:08:30.290Z,99037.31
2022-10-06T01:10:57.275Z,99036.21
2022-10-06T01:13:24.946Z,99039.21
2022-10-06T01:15:59.007Z,99040.20
2022-10-06T01:18:28.422Z,99036.36
2022-10-06T01:21:04.191Z,99040.58
2022-10-06T01:23:33.363Z,99043.13
2022-10-06T01:26:03.589Z,99047.80
2022-10-06T01:28:30.935Z,99044.99
2022-10-06T01:30:58.812Z,99049.11
2022-10-06T01:33:25.322Z,99044.17
2022-10-06T01:35:52.991Z,99054.77
2022-10-06T01:38:20.450Z,99049.28
2022-10-06T01:40:48.118Z,99051.33
2022-10-06T01:43:14.763Z,99051.41
2022-10-06T01:45:41.306Z,99054.11
2022-10-06T01:48:08.971Z,99057.00
2022-10-06T01:50:35.490Z,99058.55
2022-10-06T01:53:02.261Z,99058.27
2022-10-06T01:55:28.730Z,99056.65
2022-10-06T01:57:57.147Z,99062.88
2022-10-06T02:00:23.835Z,99062.42
2022-10-06T02:02:50.302Z,99067.50
2022-10-06T02:05:16.932Z,99069.76
2022-10-06T02:07:43.756Z,99075.61
2022-10-06T02:10:10.301Z,99082.18
2022-10-06T02:12:37.010Z,99080.41
2022-10-06T02:15:04.259Z,99084.48
2022-10-06T02:17:30.714Z,99085.27
2022-10-06T02:19:57.437Z,99080.02
2022-10-06T02:22:23.931Z,99084.11
2022-10-06T02:24:50.370Z,99081.66
2022-10-06T02:27:16.914Z,99081.89
2022-10-06T02:29:43.351Z,99083.61
2022-10-06T02:32:09.893Z,99084.45
2022-10-06T02:34:36.437Z,99080.70
2022-10-06T02:37:02.984Z,99083.85
2022-10-06T02:39:29.524Z,99081.81
2022-10-06T02:41:56.060Z,99082.05
2022-10-06T02:44:22.502Z,99086.59
2022-10-06T02:46:49.074Z,99088.02
2022-10-06T02:49:15.891Z,99091.83
2022-10-06T02:51:42.534Z,99095.11
2022-10-06T02:54:08.994Z,99092.39
2022-10-06T02:56:35.511Z,99092.80
2022-10-06T02:59:02.052Z,99096.83
2022-10-06T03:01:29.112Z,99093.32
2022-10-06T03:03:56.644Z,99091.16
2022-10-06T03:06:25.656Z,99099.11
2022-10-06T03:08:58.205Z,99104.54
2022-10-06T03:11:27.748Z,99107.20
2022-10-06T03:13:54.611Z,99108.49
2022-10-06T03:16:28.540Z,99106.73
2022-10-06T03:18:56.500Z,99109.08
2022-10-06T03:21:28.462Z,99112.09
2022-10-06T03:23:55.837Z,99109.22
2022-10-06T03:26:25.489Z,99113.67
2022-10-06T03:28:51.990Z,99111.23
2022-10-06T03:31:18.821Z,99113.57
2022-10-06T03:33:45.368Z,99116.01
2022-10-06T03:36:14.672Z,99118.14
2022-10-06T03:38:41.963Z,99115.33
2022-10-06T03:41:16.728Z,99116.80
2022-10-06T03:43:44.962Z,99111.36
2022-10-06T03:46:14.029Z,99114.82
2022-10-06T03:48:40.643Z,99114.21
2022-10-06T03:51:11.333Z,99119.64
2022-10-06T03:53:37.870Z,99122.30
2022-10-06T03:56:11.175Z,99127.86
2022-10-06T03:58:40.724Z,99128.22
2022-10-06T04:01:10.913Z,99131.64
2022-10-06T04:03:37.409Z,99129.40
2022-10-06T04:06:06.350Z,99136.63
2022-10-06T04:08:34.287Z,99136.67
2022-10-06T04:11:09.289Z,99140.16
2022-10-06T04:13:36.320Z,99139.92
2022-10-06T04:16:20.645Z,99141.66
2022-10-06T04:18:50.537Z,99149.13
2022-10-06T04:21:17.242Z,99147.36
2022-10-06T04:23:44.190Z,99146.95
2022-10-06T04:26:16.117Z,99145.91
2022-10-06T04:28:44.303Z,99149.50
2022-10-06T04:31:16.466Z,99145.23
2022-10-06T04:33:44.515Z,99148.91
2022-10-06T04:36:14.840Z,99150.24
2022-10-06T04:38:41.664Z,99148.34
2022-10-06T04:41:12.135Z,99151.95
2022-10-06T04:43:39.052Z,99152.46
2022-10-06T04:46:23.877Z,99152.77
2022-10-06T04:48:53.875Z,99149.50
2022-10-06T04:51:22.133Z,99157.73
2022-10-06T04:53:48.808Z,99157.04
2022-10-06T04:56:21.072Z,99157.38
2022-10-06T04:58:49.931Z,99159.92
2022-10-06T05:01:28.339Z,99157.64
2022-10-06T05:03:56.746Z,99164.84
2022-10-06T05:06:28.747Z,99163.46
2022-10-06T05:08:58.083Z,99167.93
2022-10-06T05:11:26.095Z,99166.46
2022-10-06T05:13:55.198Z,99163.09
2022-10-06T05:16:23.316Z,99162.16
2022-10-06T05:18:50.060Z,99165.48
2022-10-06T05:21:19.798Z,99168.29
2022-10-06T05:23:47.157Z,99169.17
2022-10-06T05:26:16.753Z,99172.46
2022-10-06T05:28:43.724Z,99173.69
2022-10-06T05:31:15.925Z,99175.91
2022-10-06T05:33:42.886Z,99177.05
2022-10-06T05:36:15.715Z,99176.16
2022-10-06T05:38:42.941Z,99173.80
2022-10-06T05:41:12.502Z,99176.71
2022-10-06T05:43:40.209Z,99178.23
2022-10-06T05:46:10.611Z,99179.73
2022-10-06T05:48:37.086Z,99179.00
2022-10-06T05:51:06.796Z,99179.48
2022-10-06T05:53:35.093Z,99184.32
2022-10-06T05:56:10.633Z,99190.80
2022-10-06T05:58:39.428Z,99193.55
2022-10-06T06:01:17.887Z,99201.52
2022-10-06T06:03:52.770Z,99207.09
2022-10-06T06:06:39.410Z,99210.48
2022-10-06T06:09:17.107Z,99215.61
2022-10-06T06:11:46.867Z,99212.61
2022-10-06T06:14:15.715Z,99216.45
2022-10-06T06:16:43.430Z,99221.11
2022-10-06T06:19:12.103Z,99222.55
2022-10-06T06:21:39.129Z,99223.05
2022-10-06T06:24:06.469Z,99221.23
2022-10-06T06:26:35.822Z,99223.09
2022-10-06T06:29:03.359Z,99230.02
2022-10-06T06:31:32.567Z,99229.59
2022-10-06T06:34:00.674Z,99232.63
2022-10-06T06:36:36.689Z,99229.94
2022-10-06T06:39:06.321Z,99228.02
2022-10-06T06:41:35.350Z,99221.82
2022-10-06T06:44:02.061Z,99227.96
2022-10-06T06:46:30.568Z,99224.09
2022-10-06T06:48:58.459Z,99225.52
2022-10-06T06:51:25.064Z,99219.48
2022-10-06T06:53:52.646Z,99218.43
2022-10-06T06:56:20.866Z,99212.17
2022-10-06T06:58:47.749Z,99211.02
2022-10-06T07:01:19.591Z,99214.27
2022-10-06T07:03:57.740Z,99212.73
2022-10-06T07:06:28.089Z,99212.61
2022-10-06T07:08:56.185Z,99214.10
2022-10-06T07:11:26.300Z,99213.11
2022-10-06T07:13:55.197Z,99214.63
2022-10-06T07:16:22.942Z,99214.28
2022-10-06T07:18:49.482Z,99221.21
2022-10-06T07:21:15.951Z,99219.98
2022-10-06T07:23:42.765Z,99221.41
2022-10-06T07:26:09.306Z,99216.98
2022-10-06T07:28:35.883Z,99210.48
2022-10-06T07:31:02.429Z,99211.48
2022-10-06T07:33:29.038Z,99214.62
2022-10-06T07:35:55.678Z,99216.17
2022-10-06T07:38:22.163Z,99214.58
2022-10-06T07:43:41.055Z,99213.85
2022-10-06T07:46:11.931Z,99210.20
2022-10-06T07:48:38.531Z,99212.69
2022-10-06T07:51:12.490Z,99218.36
2022-10-06T07:53:39.049Z,99217.21
2022-10-06T07:56:07.219Z,99218.92
2022-10-06T07:58:34.292Z,99224.29
2022-10-06T08:01:06.955Z,99226.07
2022-10-06T08:03:33.483Z,99222.84
2022-10-06T08:06:02.097Z,99226.37
2022-10-06T08:08:33.488Z,99230.41
2022-10-06T08:11:01.812Z,99229.83
2022-10-06T08:13:29.557Z,99230.58
2022-10-06T08:15:56.313Z,99230.44
2022-10-06T08:18:41.358Z,99235.08
2022-10-06T08:21:10.733Z,99237.52
2022-10-06T08:23:37.276Z,99241.35
2022-10-06T08:26:03.737Z,99243.24
2022-10-06T08:28:30.283Z,99245.27
2022-10-06T08:30:56.843Z,99246.13
2022-10-06T08:33:23.538Z,99248.11
2022-10-06T08:35:50.079Z,99244.46
2022-10-06T08:38:16.618Z,99244.45
2022-10-06T08:40:45.398Z,99244.23
2022-10-06T08:43:18.992Z,99240.94
2022-10-06T08:45:47.637Z,99243.04
2022-10-06T08:48:22.953Z,99244.36
2022-10-06T08:51:21.411Z,99253.14
2022-10-06T08:53:50.883Z,99254.04
2022-10-06T08:56:22.851Z,99254.80
2022-10-06T08:58:57.092Z,99254.50
2022-10-06T09:01:36.373Z,99253.52
2022-10-06T09:04:04.997Z,99266.38
2022-10-06T09:06:44.351Z,99267.32
2022-10-06T09:09:48.947Z,99262.60
2022-10-06T09:12:34.532Z,99266.34
2022-10-06T09:15:19.916Z,99266.02
2022-10-06T09:18:07.550Z,99272.99
2022-10-06T09:20:44.302Z,99278.69
2022-10-06T09:23:17.046Z,99276.46
2022-10-06T09:25:43.847Z,99282.55
2022-10-06T09:28:15.150Z,99285.86
2022-10-06T09:30:44.536Z,99295.86
2022-10-06T09:33:21.532Z,99293.20
2022-10-06T09:36:08.625Z,99296.12
2022-10-06T09:38:57.421Z,99297.72
2022-10-06T09:41:44.458Z,99297.84
2022-10-06T09:44:26.247Z,99305.77
2022-10-06T09:46:53.695Z,99306.31
2022-10-06T09:49:24.906Z,99315.93
2022-10-06T09:52:15.829Z,99315.91
2022-10-06T09:54:43.912Z,99316.37
2022-10-06T09:57:16.362Z,99316.73
2022-10-06T09:59:45.728Z,99314.52
2022-10-06T10:02:32.623Z,99315.71
2022-10-06T10:04:59.273Z,99321.90
2022-10-06T10:07:31.014Z,99322.70
2022-10-06T10:10:20.831Z,99326.35
2022-10-06T10:12:54.403Z,99326.23
2022-10-06T10:15:20.836Z,99327.08
2022-10-06T10:17:50.688Z,99329.73
2022-10-06T10:20:31.408Z,99332.56
2022-10-06T10:23:01.669Z,99329.84
2022-10-06T10:25:53.940Z,99328.23
2022-10-06T10:28:54.817Z,99322.65
2022-10-06T10:31:49.324Z,99323.69
2022-10-06T10:34:26.256Z,99324.67
2022-10-06T10:36:59.850Z,99319.86
2022-10-06T10:39:33.674Z,99324.46
2022-10-06T10:42:05.293Z,99321.69
2022-10-06T10:44:40.945Z,99324.77
2022-10-06T10:47:23.091Z,99324.60
2022-10-06T10:50:00.128Z,99318.05
2022-10-06T10:52:31.844Z,99316.80
2022-10-06T10:55:18.147Z,99314.17
2022-10-06T10:57:46.241Z,99317.78
2022-10-06T11:00:22.560Z,99322.73
2022-10-06T11:02:53.006Z,99325.35
2022-10-06T11:05:38.173Z,99320.70
2022-10-06T11:08:32.659Z,99323.35
2022-10-06T11:11:02.444Z,99323.41
2022-10-06T11:13:42.338Z,99315.68
2022-10-06T11:16:15.284Z,99315.50
2022-10-06T11:19:09.612Z,99311.81
2022-10-06T11:21:42.328Z,99316.38
2022-10-06T11:24:41.342Z,99316.33
2022-10-06T11:27:45.564Z,99317.67
2022-10-06T11:30:17.495Z,99318.93
2022-10-06T11:33:17.867Z,99317.55
2022-10-06T11:35:46.782Z,99316.91
2022-10-06T11:38:23.135Z,99312.95
2022-10-06T11:41:31.045Z,99312.99
2022-10-06T11:44:06.663Z,99312.38
2022-10-06T11:46:52.581Z,99312.52
2022-10-06T11:49:28.455Z,99311.57
2022-10-06T11:51:59.617Z,99311.98
2022-10-06T11:54:39.700Z,99312.23
2022-10-06T11:57:30.554Z,99313.04
2022-10-06T12:00:16.165Z,99316.96
2022-10-06T12:02:45.181Z,99313.77
2022-10-06T12:05:45.895Z,99318.09
2022-10-06T12:08:01.244Z,99317.20
2022-10-06T12:10:27.718Z,99320.89
2022-10-06T12:13:31.732Z,99320.98
2022-10-06T12:19:18.008Z,99326.60
2022-10-06T12:22:09.176Z,99331.29
2022-10-06T12:24:54.972Z,99333.83
2022-10-06T12:27:30.485Z,99337.64
2022-10-06T12:30:20.876Z,99333.11
2022-10-06T12:33:00.933Z,99333.79
2022-10-06T12:35:33.562Z,99335.27
2022-10-06T12:38:06.319Z,99336.44
2022-10-06T12:40:39.034Z,99335.79
2022-10-06T12:43:14.581Z,99340.94
2022-10-06T12:46:01.319Z,99339.36
2022-10-06T12:48:37.979Z,99337.95
2022-10-06T12:51:20.512Z,99342.33
2022-10-06T12:54:05.467Z,99341.65
2022-10-06T12:56:41.226Z,99343.40
2022-10-06T12:59:18.604Z,99347.31
2022-10-06T13:01:45.346Z,99347.94
2022-10-06T13:04:39.452Z,99346.67
2022-10-06T13:07:15.377Z,99349.50
2022-10-06T13:09:42.874Z,99352.41
2022-10-06T13:12:24.673Z,99352.77
2022-10-06T13:15:09.239Z,99352.84
2022-10-06T13:17:41.206Z,99350.77
2022-10-06T13:20:19.403Z,99352.36
2022-10-06T13:22:46.111Z,99353.79
2022-10-06T13:25:14.325Z,99354.89
2022-10-06T13:27:40.840Z,99352.95
2022-10-06T13:30:19.516Z,99350.79
2022-10-06T13:32:46.612Z,99357.33
2022-10-06T13:35:13.627Z,99357.33
2022-10-06T13:37:40.224Z,99357.21
2022-10-06T13:40:21.749Z,99361.10
2022-10-06T13:42:54.665Z,99361.08
2022-10-06T13:45:23.530Z,99364.59
2022-10-06T13:48:03.947Z,99364.77
2022-10-06T13:50:30.530Z,99367.56
2022-10-06T13:52:57.089Z,99368.16
2022-10-06T13:55:26.417Z,99369.91
2022-10-06T13:58:00.037Z,99367.88
2022-10-06T14:00:32.264Z,99372.09
2022-10-06T14:03:04.924Z,99375.05
2022-10-06T14:05:41.865Z,99376.42
2022-10-06T14:08:11.247Z,99378.83
2022-10-06T14:10:40.375Z,99383.77
2022-10-06T14:13:14.809Z,99381.88
2022-10-06T14:15:47.291Z,99384.32
2022-10-06T14:18:27.676Z,99393.14
2022-10-06T14:20:56.427Z,99392.44
2022-10-06T14:23:32.970Z,99396.49
2022-10-06T14:25:59.642Z,99399.05
2022-10-06T14:28:26.171Z,99400.20
2022-10-06T14:30:52.863Z,99399.17
2022-10-06T14:33:19.588Z,99402.45
2022-10-06T14:35:46.076Z,99393.90
2022-10-06T14:38:12.612Z,99392.02
2022-10-06T14:40:43.348Z,99388.55
2022-10-06T14:43:10.605Z,99389.67
2022-10-06T14:45:44.843Z,99393.56
2022-10-06T14:48:12.726Z,99392.78
2022-10-06T14:50:39.252Z,99393.31
2022-10-06T14:53:05.752Z,99396.64
2022-10-06T14:55:32.313Z,99393.49
2022-10-06T14:57:59.055Z,99392.79
2022-10-06T15:00:26.598Z,99395.64
2022-10-06T15:02:53.241Z,99392.80
2022-10-06T15:05:19.999Z,99398.77
2022-10-06T15:07:46.565Z,99398.14
2022-10-06T15:10:13.179Z,99390.52
2022-10-06T15:12:39.717Z,99394.42
2022-10-06T15:15:06.766Z,99398.22
2022-10-06T15:17:33.213Z,99396.80
2022-10-06T15:19:59.739Z,99398.67
2022-10-06T15:22:26.279Z,99399.02
2022-10-06T15:24:52.721Z,99408.58
2022-10-06T15:27:23.875Z,99412.52
2022-10-06T15:29:51.320Z,99415.46
2022-10-06T15:32:17.764Z,99422.29
2022-10-06T15:34:44.215Z,99424.71
2022-10-06T15:37:10.811Z,99425.24
2022-10-06T15:39:37.646Z,99433.36
2022-10-06T15:42:05.032Z,99439.30
2022-10-06T15:44:32.511Z,99442.79
2022-10-06T15:46:59.171Z,99446.11
2022-10-06T15:49:27.554Z,99447.42
2022-10-06T15:51:56.644Z,99451.95
2022-10-06T15:54:41.532Z,99450.11
2022-10-06T15:57:11.579Z,99450.73
2022-10-06T15:59:40.599Z,99451.17
2022-10-06T16:02:14.686Z,99455.00
2022-10-06T16:04:42.048Z,99455.48
2022-10-06T16:07:11.966Z,99459.42
2022-10-06T16:09:43.350Z,99462.54
2022-10-06T16:12:11.787Z,99466.07
2022-10-06T16:14:38.511Z,99467.34
2022-10-06T16:17:07.146Z,99466.92
2022-10-06T16:19:34.252Z,99469.23
2022-10-06T16:22:01.842Z,99473.04
2022-10-06T16:24:28.457Z,99477.54
2022-10-06T16:26:54.998Z,99483.39
2022-10-06T16:29:22.154Z,99486.56
2022-10-06T16:31:48.862Z,99488.99
2022-10-06T16:34:16.472Z,99486.40
2022-10-06T16:36:43.007Z,99485.63
2022-10-06T16:39:21.525Z,99481.84
2022-10-06T16:41:49.019Z,99486.65
2022-10-06T16:44:15.832Z,99488.09
2022-10-06T16:46:43.758Z,99490.99
2022-10-06T16:49:10.466Z,99499.96
2022-10-06T16:51:42.935Z,99497.70
2022-10-06T16:54:11.987Z,99502.95
2022-10-06T16:56:43.390Z,99507.41
2022-10-06T16:59:16.035Z,99508.42
2022-10-06T17:01:43.120Z,99506.02
2022-10-06T17:04:14.371Z,99511.30
2022-10-06T17:06:46.736Z,99514.77
2022-10-06T17:09:16.461Z,99515.05
2022-10-06T17:11:45.772Z,99519.45
2022-10-06T17:14:12.785Z,99525.42
2022-10-06T17:16:41.488Z,99529.08
2022-10-06T17:19:08.058Z,99528.55
2022-10-06T17:21:55.730Z,99527.95
2022-10-06T17:24:21.432Z,99532.20
2022-10-06T17:26:49.481Z,99537.05
2022-10-06T17:29:21.584Z,99536.90
2022-10-06T17:31:50.186Z,99542.68
2022-10-06T17:34:21.062Z,99546.15
2022-10-06T17:36:50.108Z,99549.02
2022-10-06T17:39:19.005Z,99553.10
2022-10-06T17:41:48.217Z,99554.42
2022-10-06T17:44:17.690Z,99558.55
2022-10-06T17:46:45.355Z,99559.91
2022-10-06T17:49:14.250Z,99563.41
2022-10-06T17:51:42.881Z,99563.13
2022-10-06T17:54:11.549Z,99565.61
2022-10-06T17:56:38.691Z,99566.93
2022-10-06T17:59:07.630Z,99569.81
2022-10-06T18:02:09.239Z,99567.98
2022-10-06T18:04:35.721Z,99567.08
2022-10-06T18:07:02.232Z,99565.98
2022-10-06T18:09:28.672Z,99563.89
2022-10-06T18:11:55.211Z,99569.34
2022-10-06T18:14:24.593Z,99573.09
2022-10-06T18:16:56.065Z,99573.27
2022-10-06T18:19:25.905Z,99580.84
2022-10-06T18:21:54.595Z,99579.41
2022-10-06T18:24:23.285Z,99585.55
2022-10-06T18:26:52.515Z,99584.92
2022-10-06T18:29:21.969Z,99589.58
2022-10-06T18:31:50.316Z,99589.94
2022-10-06T18:35:57.684Z,99593.61
2022-10-06T18:37:03.928Z,99594.27
2022-10-06T18:39:30.371Z,99602.41
2022-10-06T18:41:56.801Z,99602.73
2022-10-06T18:44:23.205Z,99603.61
2022-10-06T18:46:49.674Z,99603.17
2022-10-06T18:49:19.391Z,99607.95
2022-10-06T18:51:47.161Z,99609.48
2022-10-06T18:54:25.008Z,99615.02
2022-10-06T18:56:51.513Z,99614.48
2022-10-06T18:59:20.869Z,99614.67
2022-10-06T19:01:48.622Z,99619.90
2022-10-06T19:04:20.347Z,99621.17
2022-10-06T19:06:50.199Z,99628.73
2022-10-06T19:09:18.859Z,99633.92
2022-10-06T19:11:47.361Z,99630.44
2022-10-06T19:14:28.042Z,99628.83
2022-10-06T19:17:05.829Z,99635.23
2022-10-06T19:19:33.178Z,99641.52
2022-10-06T19:22:02.148Z,99641.46
2022-10-06T19:24:37.884Z,99647.77
2022-10-06T19:27:07.889Z,99652.42
2022-10-06T19:29:34.399Z,99647.78
2022-10-06T19:32:01.278Z,99652.84
2022-10-06T19:34:27.891Z,99652.55
2022-10-06T19:36:54.532Z,99655.70
2022-10-06T19:39:26.762Z,99658.15
2022-10-06T19:41:53.966Z,99659.69
2022-10-06T19:44:20.733Z,99660.75
2022-10-06T19:46:47.253Z,99663.06
2022-10-06T19:49:13.800Z,99665.55
2022-10-06T19:51:40.543Z,99668.32
2022-10-06T19:54:08.832Z,99669.41
2022-10-06T19:56:35.373Z,99664.91
2022-10-06T19:59:03.466Z,99666.23
2022-10-06T20:01:30.364Z,99673.98
2022-10-06T20:03:57.284Z,99676.63
2022-10-06T20:06:24.621Z,99686.70
2022-10-06T20:08:52.110Z,99688.89
2022-10-06T20:11:22.004Z,99693.86
2022-10-06T20:13:49.679Z,99694.45
2022-10-06T20:16:18.909Z,99690.70
2022-10-06T20:18:48.382Z,99690.21
2022-10-06T20:21:18.119Z,99692.38
2022-10-06T20:23:53.348Z,99693.77
2022-10-06T20:26:22.062Z,99699.40
2022-10-06T20:28:49.425Z,99697.68
2022-10-06T20:31:25.227Z,99697.09
2022-10-06T20:33:58.254Z,99696.70
2022-10-06T20:36:26.354Z,99697.92
2022-10-06T20:38:53.475Z,99696.06
2022-10-06T20:41:19.911Z,99696.05
2022-10-06T20:43:46.454Z,99696.91
2022-10-06T20:46:12.950Z,99701.09
2022-10-06T20:48:39.534Z,99702.81
2022-10-06T20:51:10.784Z,99703.96
2022-10-06T20:53:37.325Z,99710.67
2022-10-06T20:56:03.967Z,99708.64
2022-10-06T20:58:30.512Z,99705.77
2022-10-06T21:01:04.024Z,99707.78
2022-10-06T21:03:30.668Z,99708.98
2022-10-06T21:05:57.273Z,99708.11
2022-10-06T21:08:23.748Z,99710.19
2022-10-06T21:11:01.127Z,99710.13
2022-10-06T21:13:29.132Z,99715.45
2022-10-06T21:15:59.761Z,99722.14
2022-10-06T21:18:26.703Z,99719.61
2022-10-06T21:21:01.491Z,99716.14
2022-10-06T21:23:29.413Z,99713.77
2022-10-06T21:25:56.879Z,99715.36
2022-10-06T21:28:23.840Z,99718.94
2022-10-06T21:30:50.631Z,99722.02
2022-10-06T21:33:17.520Z,99722.38
2022-10-06T21:35:44.066Z,99727.75
2022-10-06T21:38:13.478Z,99724.66
2022-10-06T21:40:40.024Z,99729.27
2022-10-06T21:43:06.563Z,99727.39
2022-10-06T21:45:33.301Z,99726.90
2022-10-06T21:47:59.955Z,99723.60
2022-10-06T21:50:26.499Z,99729.34
2022-10-06T21:52:53.038Z,99728.98
2022-10-06T21:55:19.689Z,99726.25
2022-10-06T21:57:46.562Z,99731.33
2022-10-06T22:00:14.003Z,99733.52
2022-10-06T22:02:40.693Z,99732.83
2022-10-06T22:05:07.907Z,99734.95
2022-10-06T22:07:34.446Z,99737.48
2022-10-06T22:10:00.987Z,99736.49
2022-10-06T22:12:27.530Z,99737.06
2022-10-06T22:14:54.070Z,99738.61
2022-10-06T22:17:20.612Z,99735.83
2022-10-06T22:19:47.156Z,99737.33
2022-10-06T22:22:13.700Z,99741.52
2022-10-06T22:24:40.257Z,99739.91
2022-10-06T22:27:06.780Z,99739.80
2022-10-06T22:29:33.427Z,99740.42
2022-10-06T22:32:00.042Z,99741.24
2022-10-06T22:34:27.230Z,99749.34
2022-10-06T22:36:53.770Z,99746.30
2022-10-06T22:39:20.227Z,99742.23
2022-10-06T22:41:46.865Z,99743.41
2022-10-06T22:44:13.398Z,99741.48
2022-10-06T22:46:40.022Z,99741.02
2022-10-06T22:49:06.695Z,99740.77
2022-10-06T22:51:34.045Z,99735.10
2022-10-06T22:54:00.785Z,99735.38
2022-10-06T22:56:29.790Z,99738.25
2022-10-06T22:58:56.532Z,99740.02
2022-10-06T23:01:23.080Z,99738.93
2022-10-06T23:03:49.613Z,99743.45
2022-10-06T23:06:17.768Z,99740.85
2022-10-06T23:08:44.952Z,99745.40
2022-10-06T23:11:17.495Z,99743.13
2022-10-06T23:13:44.479Z,99746.77
2022-10-06T23:16:13.762Z,99747.15
2022-10-06T23:18:45.482Z,99747.20
2022-10-06T23:21:13.420Z,99747.13
2022-10-06T23:23:40.059Z,99749.19
2022-10-06T23:26:09.362Z,99753.84
2022-10-06T23:28:36.059Z,99752.85
2022-10-06T23:31:05.482Z,99753.56
2022-10-06T23:33:33.283Z,99752.71
2022-10-06T23:36:05.466Z,99755.84
2022-10-06T23:38:32.820Z,99749.40
2022-10-06T23:40:59.359Z,99747.52
2022-10-06T23:43:25.901Z,99749.80
2022-10-06T23:45:52.514Z,99748.23
2022-10-06T23:48:19.287Z,99746.15
2022-10-06T23:51:04.512Z,99744.83
2022-10-06T23:53:31.621Z,99748.18
2022-10-06T23:55:58.882Z,99749.09
2022-10-06T23:58:26.351Z,99749.84
